createdAt,value
2023-03-26T00:00:23.268Z,446.00
2023-03-26T00:56:35.283Z,454.00
2023-03-26T01:00:36.227Z,453.00
2023-03-26T01:04:36.577Z,453.00
2023-03-26T01:08:36.543Z,457.00
2023-03-26T01:12:36.832Z,461.00
2023-03-26T01:16:36.728Z,455.00
2023-03-26T01:20:36.700Z,458.00
2023-03-26T01:24:36.660Z,465.00
2023-03-26T01:28:36.643Z,460.00
2023-03-26T01:32:36.651Z,461.00
2023-03-26T01:36:36.533Z,460.00
2023-03-26T01:40:36.589Z,457.00
2023-03-26T01:44:36.580Z,457.00
2023-03-26T01:48:36.527Z,459.00
2023-03-26T01:52:36.498Z,451.00
2023-03-26T01:56:36.486Z,451.00
2023-03-26T02:00:36.720Z,453.00
2023-03-26T02:04:36.366Z,458.00
2023-03-26T02:08:36.566Z,456.00
2023-03-26T02:12:36.524Z,453.00
2023-03-26T02:16:36.554Z,455.00
2023-03-26T02:20:36.455Z,454.00
2023-03-26T02:24:37.240Z,454.00
2023-03-26T02:28:36.370Z,458.00
2023-03-26T02:32:36.379Z,462.00
2023-03-26T02:36:36.529Z,461.00
2023-03-26T02:40:36.431Z,458.00
2023-03-26T02:44:36.382Z,461.00
2023-03-26T02:48:36.380Z,466.00
2023-03-26T02:52:36.300Z,463.00
2023-03-26T02:56:36.284Z,463.00
2023-03-26T03:00:36.233Z,463.00
2023-03-26T03:04:36.410Z,464.00
2023-03-26T03:08:36.365Z,470.00
2023-03-26T03:12:36.312Z,470.00
2023-03-26T03:16:36.279Z,468.00
2023-03-26T03:20:36.276Z,465.00
2023-03-26T03:24:36.202Z,462.00
2023-03-26T03:28:36.158Z,458.00
2023-03-26T03:32:36.238Z,462.00
2023-03-26T03:36:36.204Z,453.00
2023-03-26T03:40:36.151Z,453.00
2023-03-26T03:44:36.112Z,458.00
2023-03-26T03:48:36.245Z,456.00
2023-03-26T03:52:36.054Z,448.00
2023-03-26T03:56:36.101Z,451.00
2023-03-26T04:00:36.074Z,449.00
2023-03-26T04:04:36.319Z,457.00
2023-03-26T04:08:36.278Z,458.00
2023-03-26T04:12:36.230Z,464.00
2023-03-26T04:16:36.614Z,461.00
2023-03-26T04:20:36.152Z,458.00
2023-03-26T04:24:36.144Z,455.00
2023-03-26T04:28:36.070Z,459.00
2023-03-26T04:32:36.170Z,457.00
2023-03-26T04:36:36.332Z,459.00
2023-03-26T04:40:36.583Z,459.00
2023-03-26T04:44:36.772Z,463.00
2023-03-26T04:48:36.975Z,459.00
2023-03-26T04:52:37.218Z,461.00
2023-03-26T04:56:37.493Z,455.00
2023-03-26T05:00:37.364Z,459.00
2023-03-26T05:04:38.463Z,459.00
2023-03-26T05:08:37.280Z,458.00
2023-03-26T05:12:37.541Z,458.00
2023-03-26T05:16:37.494Z,462.00
2023-03-26T05:20:37.417Z,463.00
2023-03-26T05:24:37.371Z,461.00
2023-03-26T05:28:38.436Z,463.00
2023-03-26T05:32:37.407Z,465.00
2023-03-26T05:36:37.416Z,465.00
2023-03-26T05:40:37.363Z,461.00
2023-03-26T05:44:37.382Z,459.00
2023-03-26T05:48:37.288Z,463.00
2023-03-26T05:52:37.252Z,459.00
2023-03-26T05:56:37.245Z,457.00
2023-03-26T06:00:37.206Z,461.00
2023-03-26T06:04:37.435Z,460.00
2023-03-26T06:08:37.283Z,462.00
2023-03-26T06:12:37.811Z,465.00
2023-03-26T06:16:37.392Z,470.00
2023-03-26T06:20:37.161Z,470.00
2023-03-26T06:24:37.126Z,475.00
2023-03-26T06:28:37.149Z,475.00
2023-03-26T06:32:37.129Z,479.00
2023-03-26T06:36:37.010Z,478.00
2023-03-26T06:40:37.176Z,476.00
2023-03-26T06:44:38.455Z,475.00
2023-03-26T06:48:37.606Z,477.00
2023-03-26T06:52:37.812Z,474.00
2023-03-26T06:56:38.058Z,468.00
2023-03-26T07:00:38.535Z,471.00
2023-03-26T07:04:38.494Z,463.00
2023-03-26T07:08:38.663Z,464.00
2023-03-26T07:12:38.843Z,469.00
2023-03-26T07:16:39.056Z,470.00
2023-03-26T07:20:39.507Z,470.00
2023-03-26T07:24:39.480Z,471.00
2023-03-26T07:28:39.638Z,472.00
2023-03-26T07:32:39.873Z,472.00
2023-03-26T07:36:40.044Z,473.00
2023-03-26T07:40:40.168Z,473.00
2023-03-26T07:44:40.359Z,473.00
2023-03-26T07:48:40.517Z,466.00
2023-03-26T07:52:40.874Z,467.00
2023-03-26T07:56:40.841Z,472.00
2023-03-26T08:00:40.844Z,468.00
2023-03-26T08:04:41.069Z,474.00
2023-03-26T08:08:42.203Z,471.00
2023-03-26T08:12:41.197Z,470.00
2023-03-26T08:16:41.310Z,471.00
2023-03-26T08:20:41.420Z,472.00
2023-03-26T08:24:41.566Z,468.00
2023-03-26T08:28:41.880Z,464.00
2023-03-26T08:32:41.825Z,473.00
2023-03-26T08:36:41.847Z,468.00
2023-03-26T08:40:41.977Z,474.00
2023-03-26T08:44:42.040Z,471.00
2023-03-26T08:48:42.152Z,473.00
2023-03-26T08:52:42.322Z,477.00
2023-03-26T08:56:42.489Z,472.00
2023-03-26T09:00:42.578Z,473.00
2023-03-26T09:04:42.723Z,475.00
2023-03-26T09:08:53.905Z,469.00
2023-03-26T09:12:42.846Z,465.00
2023-03-26T09:16:42.862Z,462.00
2023-03-26T09:20:42.747Z,472.00
2023-03-26T09:24:42.716Z,471.00
2023-03-26T09:28:42.697Z,464.00
2023-03-26T09:32:42.697Z,466.00
2023-03-26T09:36:42.607Z,465.00
2023-03-26T09:40:42.564Z,465.00
2023-03-26T09:44:42.558Z,464.00
2023-03-26T09:48:42.637Z,465.00
2023-03-26T09:52:42.779Z,464.00
2023-03-26T09:56:43.428Z,462.00
2023-03-26T10:00:43.142Z,463.00
2023-03-26T10:04:43.274Z,464.00
2023-03-26T10:08:43.413Z,472.00
2023-03-26T10:12:43.533Z,467.00
2023-03-26T10:16:43.708Z,465.00
2023-03-26T10:20:43.786Z,462.00
2023-03-26T10:24:43.909Z,463.00
2023-03-26T10:28:44.015Z,466.00
2023-03-26T10:32:44.193Z,469.00
2023-03-26T10:40:43.377Z,469.00
2023-03-26T10:48:43.634Z,465.00
2023-03-26T10:56:43.960Z,464.00
2023-03-26T11:04:44.196Z,470.00
2023-03-26T11:12:44.610Z,466.00
2023-03-26T11:20:44.764Z,467.00
2023-03-26T11:29:03.737Z,464.00
2023-03-26T11:36:44.963Z,463.00
2023-03-26T11:44:44.860Z,469.00
2023-03-26T11:52:46.871Z,461.00
2023-03-26T12:00:44.770Z,464.00
2023-03-26T12:08:45.033Z,468.00
2023-03-26T18:33:00.728Z,452.00
2023-03-26T22:49:11.280Z,453.00
2023-03-26T22:53:12.439Z,451.00
2023-03-26T22:57:12.652Z,455.00
2023-03-26T23:01:12.792Z,451.00
